Lena — V2FR — position and weather

sailwx.info

Track history (hours):
 
Tides and Currents Weather Stations Pressure Air Temp Water Temp Dewpoint Dewpoint Depression Visibility Wind Speed Wind Dir Waves Ship Positions

Lena

Last reported at 2017-Sep-03 15:19 UTC. Time now 2017-Oct-17 02:08 UTC.
Position N 37°39' E 122°49'.
Warning: this ship's position is 43 days out of date.

Length 152 m; draft 6.3 m.

Type: Ship. MMSI: 304080808.

Date/timePositionNaut miles runAvg speedWind from/ knotsBaromVisibWave heightAir tempDewpointWater temp
2017-Sep-03 15:19N 37°39' E 122°49'9618.1
2017-Sep-03 09:58N 38°28' E 121°04'5 0.1
2017-Sep-01 19:27N 38°31' E 121°09'2716.9
2017-Sep-01 17:52N 38°17' E 121°38'617.3
2017-Sep-01 17:30N 38°14' E 121°45'4017.3
2017-Sep-01 15:12N 37°54' E 122°28'717.6
2017-Sep-01 14:48N 37°50' E 122°36'1117.1
2017-Sep-01 14:09N 37°45' E 122°48'316.9
2017-Sep-01 13:59N 37°44' E 122°51'  
Track history (hours):
 
Tides and Currents Weather Stations Pressure Air Temp Water Temp Dewpoint Dewpoint Depression Visibility Wind Speed Wind Dir Waves Ship Positions

Lena

Last reported at 2017-Sep-03 15:19 UTC. Time now 2017-Oct-17 02:08 UTC.
Position N 37°39' E 122°49'.
Warning: this ship's position is 43 days out of date.

Length 152 m; draft 6.3 m.

Type: Ship. MMSI: 304080808.

Date/timePositionNaut miles runAvg speedWind from/ knotsBaromVisibWave heightAir tempDewpointWater temp
2017-Sep-03 15:19N 37°39' E 122°49'9618.1
2017-Sep-03 09:58N 38°28' E 121°04'5 0.1
2017-Sep-01 19:27N 38°31' E 121°09'2716.9
2017-Sep-01 17:52N 38°17' E 121°38'617.3
2017-Sep-01 17:30N 38°14' E 121°45'4017.3
2017-Sep-01 15:12N 37°54' E 122°28'717.6
2017-Sep-01 14:48N 37°50' E 122°36'1117.1
2017-Sep-01 14:09N 37°45' E 122°48'316.9
2017-Sep-01 13:59N 37°44' E 122°51'  

Dump ship's entire track history